Autopride — CQQE — position and weather

sailwx.info

Track history (hours):
 
Tides and Currents Weather Stations Pressure Air Temp Water Temp Dewpoint Dewpoint Depression Visibility Wind Speed Wind Dir Waves Ship Positions

Autopride

Last reported at 2016-Aug-31 10:20 UTC. Time now 2016-Aug-31 21:44 UTC.
Position N 55°47' E 007°27'.

Length 125 m; draft 5.5 m.

Type: Cargo ship. MMSI: 255801560.

Date/timePositionNaut miles runAvg speedWind from/ knotsBaromVisibWave heightAir tempDewpointWater temp
2016-Aug-31 10:20N 55°47' E 007°27'1316.6
2016-Aug-31 09:33N 55°35' E 007°22'1616.5
2016-Aug-31 08:33N 55°18' E 007°24'1616.3
2016-Aug-31 07:33N 55°02' E 007°26'1616.3
2016-Aug-31 06:34N 54°46' E 007°28'1616.0
2016-Aug-31 05:33N 54°30' E 007°30'1515.5
2016-Aug-31 04:34N 54°14' E 007°31'1615.6
2016-Aug-31 03:34N 53°59' E 007°39'1616.0
2016-Aug-31 02:34N 53°51' E 008°03'2020.2
2016-Aug-31 01:33N 53°37' E 008°28'5 5.0
2016-Aug-31 00:33N 53°34' E 008°34'0 0.4
2016-Aug-30 23:33N 53°34' E 008°34'0 0.0
2016-Aug-30 22:24N 53°34' E 008°34'0 0.0
2016-Aug-30 21:33N 53°34' E 008°34'0 0.0
2016-Aug-30 20:33N 53°34' E 008°34'0 0.0
2016-Aug-30 19:27N 53°34' E 008°34'0 0.0
2016-Aug-30 18:33N 53°34' E 008°34'0 0.0
2016-Aug-30 17:33N 53°34' E 008°34'0 0.0
2016-Aug-30 16:33N 53°34' E 008°34'1 0.5
2016-Aug-30 15:33N 53°33' E 008°34'10 9.7
2016-Aug-30 14:33N 53°40' E 008°22'1616.1
2016-Aug-30 13:34N 53°51' E 008°01'1414.0
2016-Aug-30 12:33N 53°56' E 007°39'1313.3
2016-Aug-30 11:33N 54°08' E 007°28'1312.6
2016-Aug-30 10:33N 54°20' E 007°28'1312.5
2016-Aug-30 09:33N 54°33' E 007°25'1312.8
2016-Aug-30 08:33N 54°46' E 007°25'1312.8
2016-Aug-30 07:34N 54°58' E 007°25'1413.6
2016-Aug-30 06:33N 55°12' E 007°24'1717.3
2016-Aug-30 05:33N 55°29' E 007°22'1717.0
2016-Aug-30 04:33N 55°46' E 007°26'15317.0
2016-Aug-29 19:33N 58°04' E 009°27'1716.9
2016-Aug-29 18:34N 58°18' E 009°45'1717.2
2016-Aug-29 17:34N 58°33' E 010°02'1717.2
2016-Aug-29 16:33N 58°47' E 010°21'1717.0
2016-Aug-29 15:33N 59°03' E 010°35'1818.3
2016-Aug-29 14:33N 59°21' E 010°35'1817.7
2016-Aug-29 13:33N 59°38' E 010°37'1414.2
2016-Aug-29 12:33N 59°53' E 010°42'2 2.0
2016-Aug-29 11:31N 59°53' E 010°46'0 0.0
2016-Aug-29 10:31N 59°53' E 010°46'0 0.0
2016-Aug-29 09:31N 59°53' E 010°46'0 0.0
2016-Aug-29 08:31N 59°53' E 010°46'0 0.0
2016-Aug-29 07:31N 59°53' E 010°46'0 0.0
2016-Aug-29 06:28N 59°53' E 010°46'0 0.0
2016-Aug-29 05:31N 59°53' E 010°46'0 0.0
2016-Aug-29 04:33N 59°53' E 010°46'9 9.3
2016-Aug-29 03:33N 59°46' E 010°34'1413.8
2016-Aug-29 02:34N 59°32' E 010°37'1717.3
2016-Aug-29 01:33N 59°15' E 010°38'1716.8
2016-Aug-29 00:33N 58°58' E 010°34'1515.3
2016-Aug-28 23:33N 58°45' E 010°18'1515.2
2016-Aug-28 22:33N 58°32' E 010°02'1515.2
2016-Aug-28 21:33N 58°20' E 009°46'16815.2
2016-Aug-28 10:28N 55°49' E 007°29'1415.5
2016-Aug-28 09:33N 55°36' E 007°22'1514.7
2016-Aug-28 08:33N 55°21' E 007°23'1615.7
2016-Aug-28 07:33N 55°05' E 007°25'1615.8
2016-Aug-28 06:33N 54°50' E 007°26'1616.1
2016-Aug-28 05:34N 54°33' E 007°29'1616.1
2016-Aug-28 04:34N 54°17' E 007°31'1615.8
2016-Aug-28 03:33N 54°02' E 007°38'1515.0
2016-Aug-28 02:33N 53°52' E 007°56'1716.6
2016-Aug-28 01:34N 53°42' E 008°19'1211.7
2016-Aug-28 00:31N 53°33' E 008°34'1 0.5
2016-Aug-27 23:32N 53°34' E 008°34'0 0.0
2016-Aug-27 22:32N 53°34' E 008°34'0 0.0
2016-Aug-27 21:32N 53°34' E 008°34'0 0.0
2016-Aug-27 20:32N 53°34' E 008°34'0 0.0
2016-Aug-27 19:32N 53°34' E 008°34'0 0.0
2016-Aug-27 18:32N 53°34' E 008°34'0 0.0
2016-Aug-27 17:32N 53°34' E 008°34'0 0.0
2016-Aug-27 16:32N 53°34' E 008°34'0 0.0
2016-Aug-27 15:32N 53°34' E 008°34'0 0.0
2016-Aug-27 14:32N 53°34' E 008°34'0 0.3
2016-Aug-27 13:33N 53°34' E 008°34'1 0.8
2016-Aug-27 12:33N 53°35' E 008°34'0 0.0
2016-Aug-27 11:33N 53°35' E 008°34'0 0.0
2016-Aug-27 10:33N 53°35' E 008°34'0 0.0
2016-Aug-27 09:30N 53°35' E 008°34'0 0.0
2016-Aug-27 08:30N 53°35' E 008°34'0 0.0
2016-Aug-27 07:33N 53°35' E 008°34'1 0.9
2016-Aug-27 06:33N 53°34' E 008°33'3115.6
2016-Aug-27 04:33N 53°52' E 007°50'1211.7
2016-Aug-27 03:33N 54°00' E 007°35'1111.4
2016-Aug-27 02:34N 54°11' E 007°27'1111.3
2016-Aug-27 01:33N 54°22' E 007°26'1111.2
2016-Aug-27 00:33N 54°33' E 007°25'1111.5
2016-Aug-26 23:33N 54°45' E 007°25'1111.4
2016-Aug-26 22:33N 54°56' E 007°25'1111.3
2016-Aug-26 21:33N 55°07' E 007°24'1211.5
2016-Aug-26 20:33N 55°19' E 007°23'1111.3
2016-Aug-26 19:33N 55°30' E 007°22'1211.1
2016-Aug-26 18:30N 55°42' E 007°24'1111.2
2016-Aug-26 17:30N 55°52' E 007°30'15611.2
2016-Aug-26 03:33N 58°13' E 009°36'2211.2
2016-Aug-26 01:33N 58°32' E 010°00'1211.6
2016-Aug-26 00:33N 58°41' E 010°13'1211.7
2016-Aug-25 23:34N 58°51' E 010°25'1111.2
2016-Aug-25 22:33N 59°01' E 010°35'1312.7
2016-Aug-25 21:34N 59°13' E 010°37'1514.9
2016-Aug-25 20:34N 59°28' E 010°30'1110.5
2016-Aug-25 19:34N 59°38' E 010°25'4 0.9
2016-Aug-25 14:23N 59°42' E 010°21'810.2
2016-Aug-25 13:33N 59°34' E 010°25'7 7.2
2016-Aug-25 12:33N 59°37' E 010°38'1313.2
2016-Aug-25 11:33N 59°50' E 010°35'6 6.4
2016-Aug-25 10:33N 59°53' E 010°46'0 0.0
2016-Aug-25 09:33N 59°53' E 010°46'0 0.0
2016-Aug-25 08:24N 59°53' E 010°46'0 0.0
2016-Aug-25 07:18N 59°53' E 010°46'0 0.0
2016-Aug-25 06:30N 59°53' E 010°46'0 0.1
2016-Aug-25 04:33N 59°53' E 010°46'1211.6
2016-Aug-25 03:33N 59°43' E 010°35'1514.9
2016-Aug-25 02:34N 59°28' E 010°34'1918.9
2016-Aug-25 01:33N 59°09' E 010°39'1817.7
2016-Aug-25 00:33N 58°52' E 010°27'1716.8
2016-Aug-24 23:33N 58°38' E 010°10'12918.4
2016-Aug-24 16:33N 56°49' E 008°01'1818.5
2016-Aug-24 15:33N 56°32' E 007°51'3718.4
2016-Aug-24 13:32N 55°56' E 007°32'1818.1
2016-Aug-24 12:33N 55°39' E 007°23'1818.0
2016-Aug-24 11:33N 55°21' E 007°25'1818.0
2016-Aug-24 10:33N 55°03' E 007°26'1818.4
2016-Aug-24 09:33N 54°44' E 007°28'1918.5
2016-Aug-24 08:33N 54°26' E 007°31'1918.8
2016-Aug-24 07:33N 54°07' E 007°33'1818.2
2016-Aug-24 06:33N 53°53' E 007°51'3115.7
2016-Aug-24 04:33N 53°33' E 008°34'1 0.5
2016-Aug-24 03:32N 53°34' E 008°34'0 0.0
2016-Aug-24 02:32N 53°34' E 008°34'0 0.0
2016-Aug-24 01:29N 53°34' E 008°34'0 0.0
2016-Aug-24 00:29N 53°34' E 008°34'0 0.0
2016-Aug-23 23:32N 53°34' E 008°34'0 0.0
2016-Aug-23 22:32N 53°34' E 008°34'0 0.0
2016-Aug-23 21:32N 53°34' E 008°34'0 0.0
2016-Aug-23 20:32N 53°34' E 008°34'1 1.0
2016-Aug-23 19:33N 53°35' E 008°33'0 0.0
2016-Aug-23 18:33N 53°35' E 008°33'0 0.0
2016-Aug-23 17:33N 53°35' E 008°33'0 0.1
2016-Aug-23 16:33N 53°35' E 008°33'2 2.4
2016-Aug-23 15:33N 53°36' E 008°30'1716.9
2016-Aug-23 14:33N 53°47' E 008°09'1414.2
2016-Aug-23 13:33N 53°53' E 007°46'1212.1
2016-Aug-23 12:33N 54°02' E 007°34'1111.4
2016-Aug-23 11:33N 54°13' E 007°26'1211.6
2016-Aug-23 10:33N 54°24' E 007°26'1111.4
2016-Aug-23 09:33N 54°36' E 007°26'1211.7
2016-Aug-23 08:33N 54°47' E 007°25'1211.6
2016-Aug-23 07:34N 54°59' E 007°24'1414.3
2016-Aug-23 06:33N 55°13' E 007°24'1818.1
2016-Aug-23 05:33N 55°31' E 007°21'1817.8
2016-Aug-23 04:31N 55°49' E 007°29'18317.9
2016-Aug-22 18:20N 58°32' E 010°01'1418.2
2016-Aug-22 17:33N 58°44' E 010°16'1918.7
2016-Aug-22 16:33N 58°60' E 010°35'1818.3
2016-Aug-22 15:33N 59°18' E 010°36'1717.1
2016-Aug-22 14:34N 59°35' E 010°38'1615.9
2016-Aug-22 13:34N 59°51' E 010°36'6 5.1
2016-Aug-22 12:27N 59°53' E 010°46'0 0.0
2016-Aug-22 10:27N 59°53' E 010°46'0 0.0
2016-Aug-22 08:18N 59°53' E 010°46'0 0.0
2016-Aug-22 07:21N 59°53' E 010°46'0 0.0
2016-Aug-22 06:33N 59°53' E 010°46'0 0.0
2016-Aug-22 01:33N 59°53' E 010°46'0 0.0
2016-Aug-22 00:30N 59°53' E 010°46'0 0.0
2016-Aug-21 23:33N 59°53' E 010°46'0 0.0
2016-Aug-21 22:33N 59°53' E 010°46'0 0.0
2016-Aug-21 21:27N 59°53' E 010°46'0 0.0
2016-Aug-21 20:33N 59°53' E 010°46'1110.6
2016-Aug-21 19:33N 59°44' E 010°35'1211.8
2016-Aug-21 18:34N 59°32' E 010°37'1918.6
2016-Aug-21 17:34N 59°14' E 010°38'1515.2
2016-Aug-21 16:33N 58°59' E 010°35'1312.9
2016-Aug-21 15:33N 58°48' E 010°20'1313.0
2016-Aug-21 14:33N 58°37' E 010°07'1313.3
2016-Aug-21 13:33N 58°26' E 009°53'1313.1
2016-Aug-21 12:33N 58°15' E 009°39'  
Track history (hours):
 
Tides and Currents Weather Stations Pressure Air Temp Water Temp Dewpoint Dewpoint Depression Visibility Wind Speed Wind Dir Waves Ship Positions

Autopride

Last reported at 2016-Aug-31 10:20 UTC. Time now 2016-Aug-31 21:44 UTC.
Position N 55°47' E 007°27'.

Length 125 m; draft 5.5 m.

Type: Cargo ship. MMSI: 255801560.

Date/timePositionNaut miles runAvg speedWind from/ knotsBaromVisibWave heightAir tempDewpointWater temp
2016-Aug-31 10:20N 55°47' E 007°27'1316.6
2016-Aug-31 09:33N 55°35' E 007°22'1616.5
2016-Aug-31 08:33N 55°18' E 007°24'1616.3
2016-Aug-31 07:33N 55°02' E 007°26'1616.3
2016-Aug-31 06:34N 54°46' E 007°28'1616.0
2016-Aug-31 05:33N 54°30' E 007°30'1515.5
2016-Aug-31 04:34N 54°14' E 007°31'1615.6
2016-Aug-31 03:34N 53°59' E 007°39'1616.0
2016-Aug-31 02:34N 53°51' E 008°03'2020.2
2016-Aug-31 01:33N 53°37' E 008°28'5 5.0
2016-Aug-31 00:33N 53°34' E 008°34'0 0.4
2016-Aug-30 23:33N 53°34' E 008°34'0 0.0
2016-Aug-30 22:24N 53°34' E 008°34'0 0.0
2016-Aug-30 21:33N 53°34' E 008°34'0 0.0
2016-Aug-30 20:33N 53°34' E 008°34'0 0.0
2016-Aug-30 19:27N 53°34' E 008°34'0 0.0
2016-Aug-30 18:33N 53°34' E 008°34'0 0.0
2016-Aug-30 17:33N 53°34' E 008°34'0 0.0
2016-Aug-30 16:33N 53°34' E 008°34'1 0.5
2016-Aug-30 15:33N 53°33' E 008°34'10 9.7
2016-Aug-30 14:33N 53°40' E 008°22'1616.1
2016-Aug-30 13:34N 53°51' E 008°01'1414.0
2016-Aug-30 12:33N 53°56' E 007°39'1313.3
2016-Aug-30 11:33N 54°08' E 007°28'1312.6
2016-Aug-30 10:33N 54°20' E 007°28'1312.5
2016-Aug-30 09:33N 54°33' E 007°25'1312.8
2016-Aug-30 08:33N 54°46' E 007°25'1312.8
2016-Aug-30 07:34N 54°58' E 007°25'1413.6
2016-Aug-30 06:33N 55°12' E 007°24'1717.3
2016-Aug-30 05:33N 55°29' E 007°22'1717.0
2016-Aug-30 04:33N 55°46' E 007°26'15317.0
2016-Aug-29 19:33N 58°04' E 009°27'1716.9
2016-Aug-29 18:34N 58°18' E 009°45'1717.2
2016-Aug-29 17:34N 58°33' E 010°02'1717.2
2016-Aug-29 16:33N 58°47' E 010°21'1717.0
2016-Aug-29 15:33N 59°03' E 010°35'1818.3
2016-Aug-29 14:33N 59°21' E 010°35'1817.7
2016-Aug-29 13:33N 59°38' E 010°37'1414.2
2016-Aug-29 12:33N 59°53' E 010°42'2 2.0
2016-Aug-29 11:31N 59°53' E 010°46'0 0.0
2016-Aug-29 10:31N 59°53' E 010°46'0 0.0
2016-Aug-29 09:31N 59°53' E 010°46'0 0.0
2016-Aug-29 08:31N 59°53' E 010°46'0 0.0
2016-Aug-29 07:31N 59°53' E 010°46'0 0.0
2016-Aug-29 06:28N 59°53' E 010°46'0 0.0
2016-Aug-29 05:31N 59°53' E 010°46'0 0.0
2016-Aug-29 04:33N 59°53' E 010°46'9 9.3
2016-Aug-29 03:33N 59°46' E 010°34'1413.8
2016-Aug-29 02:34N 59°32' E 010°37'1717.3
2016-Aug-29 01:33N 59°15' E 010°38'1716.8
2016-Aug-29 00:33N 58°58' E 010°34'1515.3
2016-Aug-28 23:33N 58°45' E 010°18'1515.2
2016-Aug-28 22:33N 58°32' E 010°02'1515.2
2016-Aug-28 21:33N 58°20' E 009°46'16815.2
2016-Aug-28 10:28N 55°49' E 007°29'1415.5
2016-Aug-28 09:33N 55°36' E 007°22'1514.7
2016-Aug-28 08:33N 55°21' E 007°23'1615.7
2016-Aug-28 07:33N 55°05' E 007°25'1615.8
2016-Aug-28 06:33N 54°50' E 007°26'1616.1
2016-Aug-28 05:34N 54°33' E 007°29'1616.1
2016-Aug-28 04:34N 54°17' E 007°31'1615.8
2016-Aug-28 03:33N 54°02' E 007°38'1515.0
2016-Aug-28 02:33N 53°52' E 007°56'1716.6
2016-Aug-28 01:34N 53°42' E 008°19'1211.7
2016-Aug-28 00:31N 53°33' E 008°34'1 0.5
2016-Aug-27 23:32N 53°34' E 008°34'0 0.0
2016-Aug-27 22:32N 53°34' E 008°34'0 0.0
2016-Aug-27 21:32N 53°34' E 008°34'0 0.0
2016-Aug-27 20:32N 53°34' E 008°34'0 0.0
2016-Aug-27 19:32N 53°34' E 008°34'0 0.0
2016-Aug-27 18:32N 53°34' E 008°34'0 0.0
2016-Aug-27 17:32N 53°34' E 008°34'0 0.0
2016-Aug-27 16:32N 53°34' E 008°34'0 0.0
2016-Aug-27 15:32N 53°34' E 008°34'0 0.0
2016-Aug-27 14:32N 53°34' E 008°34'0 0.3
2016-Aug-27 13:33N 53°34' E 008°34'1 0.8
2016-Aug-27 12:33N 53°35' E 008°34'0 0.0
2016-Aug-27 11:33N 53°35' E 008°34'0 0.0
2016-Aug-27 10:33N 53°35' E 008°34'0 0.0
2016-Aug-27 09:30N 53°35' E 008°34'0 0.0
2016-Aug-27 08:30N 53°35' E 008°34'0 0.0
2016-Aug-27 07:33N 53°35' E 008°34'1 0.9
2016-Aug-27 06:33N 53°34' E 008°33'3115.6
2016-Aug-27 04:33N 53°52' E 007°50'1211.7
2016-Aug-27 03:33N 54°00' E 007°35'1111.4
2016-Aug-27 02:34N 54°11' E 007°27'1111.3
2016-Aug-27 01:33N 54°22' E 007°26'1111.2
2016-Aug-27 00:33N 54°33' E 007°25'1111.5
2016-Aug-26 23:33N 54°45' E 007°25'1111.4
2016-Aug-26 22:33N 54°56' E 007°25'1111.3
2016-Aug-26 21:33N 55°07' E 007°24'1211.5
2016-Aug-26 20:33N 55°19' E 007°23'1111.3
2016-Aug-26 19:33N 55°30' E 007°22'1211.1
2016-Aug-26 18:30N 55°42' E 007°24'1111.2
2016-Aug-26 17:30N 55°52' E 007°30'15611.2
2016-Aug-26 03:33N 58°13' E 009°36'2211.2
2016-Aug-26 01:33N 58°32' E 010°00'1211.6
2016-Aug-26 00:33N 58°41' E 010°13'1211.7
2016-Aug-25 23:34N 58°51' E 010°25'1111.2
2016-Aug-25 22:33N 59°01' E 010°35'1312.7
2016-Aug-25 21:34N 59°13' E 010°37'1514.9
2016-Aug-25 20:34N 59°28' E 010°30'1110.5
2016-Aug-25 19:34N 59°38' E 010°25'4 0.9
2016-Aug-25 14:23N 59°42' E 010°21'810.2
2016-Aug-25 13:33N 59°34' E 010°25'7 7.2
2016-Aug-25 12:33N 59°37' E 010°38'1313.2
2016-Aug-25 11:33N 59°50' E 010°35'6 6.4
2016-Aug-25 10:33N 59°53' E 010°46'0 0.0
2016-Aug-25 09:33N 59°53' E 010°46'0 0.0
2016-Aug-25 08:24N 59°53' E 010°46'0 0.0
2016-Aug-25 07:18N 59°53' E 010°46'0 0.0
2016-Aug-25 06:30N 59°53' E 010°46'0 0.1
2016-Aug-25 04:33N 59°53' E 010°46'1211.6
2016-Aug-25 03:33N 59°43' E 010°35'1514.9
2016-Aug-25 02:34N 59°28' E 010°34'1918.9
2016-Aug-25 01:33N 59°09' E 010°39'1817.7
2016-Aug-25 00:33N 58°52' E 010°27'1716.8
2016-Aug-24 23:33N 58°38' E 010°10'12918.4
2016-Aug-24 16:33N 56°49' E 008°01'1818.5
2016-Aug-24 15:33N 56°32' E 007°51'3718.4
2016-Aug-24 13:32N 55°56' E 007°32'1818.1
2016-Aug-24 12:33N 55°39' E 007°23'1818.0
2016-Aug-24 11:33N 55°21' E 007°25'1818.0
2016-Aug-24 10:33N 55°03' E 007°26'1818.4
2016-Aug-24 09:33N 54°44' E 007°28'1918.5
2016-Aug-24 08:33N 54°26' E 007°31'1918.8
2016-Aug-24 07:33N 54°07' E 007°33'1818.2
2016-Aug-24 06:33N 53°53' E 007°51'3115.7
2016-Aug-24 04:33N 53°33' E 008°34'1 0.5
2016-Aug-24 03:32N 53°34' E 008°34'0 0.0
2016-Aug-24 02:32N 53°34' E 008°34'0 0.0
2016-Aug-24 01:29N 53°34' E 008°34'0 0.0
2016-Aug-24 00:29N 53°34' E 008°34'0 0.0
2016-Aug-23 23:32N 53°34' E 008°34'0 0.0
2016-Aug-23 22:32N 53°34' E 008°34'0 0.0
2016-Aug-23 21:32N 53°34' E 008°34'0 0.0
2016-Aug-23 20:32N 53°34' E 008°34'1 1.0
2016-Aug-23 19:33N 53°35' E 008°33'0 0.0
2016-Aug-23 18:33N 53°35' E 008°33'0 0.0
2016-Aug-23 17:33N 53°35' E 008°33'0 0.1
2016-Aug-23 16:33N 53°35' E 008°33'2 2.4
2016-Aug-23 15:33N 53°36' E 008°30'1716.9
2016-Aug-23 14:33N 53°47' E 008°09'1414.2
2016-Aug-23 13:33N 53°53' E 007°46'1212.1
2016-Aug-23 12:33N 54°02' E 007°34'1111.4
2016-Aug-23 11:33N 54°13' E 007°26'1211.6
2016-Aug-23 10:33N 54°24' E 007°26'1111.4
2016-Aug-23 09:33N 54°36' E 007°26'1211.7
2016-Aug-23 08:33N 54°47' E 007°25'1211.6
2016-Aug-23 07:34N 54°59' E 007°24'1414.3
2016-Aug-23 06:33N 55°13' E 007°24'1818.1
2016-Aug-23 05:33N 55°31' E 007°21'1817.8
2016-Aug-23 04:31N 55°49' E 007°29'18317.9
2016-Aug-22 18:20N 58°32' E 010°01'1418.2
2016-Aug-22 17:33N 58°44' E 010°16'1918.7
2016-Aug-22 16:33N 58°60' E 010°35'1818.3
2016-Aug-22 15:33N 59°18' E 010°36'1717.1
2016-Aug-22 14:34N 59°35' E 010°38'1615.9
2016-Aug-22 13:34N 59°51' E 010°36'6 5.1
2016-Aug-22 12:27N 59°53' E 010°46'0 0.0
2016-Aug-22 10:27N 59°53' E 010°46'0 0.0
2016-Aug-22 08:18N 59°53' E 010°46'0 0.0
2016-Aug-22 07:21N 59°53' E 010°46'0 0.0
2016-Aug-22 06:33N 59°53' E 010°46'0 0.0
2016-Aug-22 01:33N 59°53' E 010°46'0 0.0
2016-Aug-22 00:30N 59°53' E 010°46'0 0.0
2016-Aug-21 23:33N 59°53' E 010°46'0 0.0
2016-Aug-21 22:33N 59°53' E 010°46'0 0.0
2016-Aug-21 21:27N 59°53' E 010°46'0 0.0
2016-Aug-21 20:33N 59°53' E 010°46'1110.6
2016-Aug-21 19:33N 59°44' E 010°35'1211.8
2016-Aug-21 18:34N 59°32' E 010°37'1918.6
2016-Aug-21 17:34N 59°14' E 010°38'1515.2
2016-Aug-21 16:33N 58°59' E 010°35'1312.9
2016-Aug-21 15:33N 58°48' E 010°20'1313.0
2016-Aug-21 14:33N 58°37' E 010°07'1313.3
2016-Aug-21 13:33N 58°26' E 009°53'1313.1
2016-Aug-21 12:33N 58°15' E 009°39'  

Dump ship's entire track history